Lähimmät METAR asemat

 

EFPO - Pori (mil/Civ), Finland
Distance from station: PLU 42km
Päivitetty: 24/02/2018 05:50
Selkeätä
Selkeätä
 Wind from PKO
Tuuli: PKO 6 km/h
Lämpötila: -17°C
Kastepiste: -20°C
Kosteus: 78%
Ilmanpaine: 1038 hPa
Yhteenveto: Selkeätä
Visibility: greater than 10 km
2018/02/24 03:50 EFPO 240350Z AUTO 03003KT 350V070 CAVOK M17/M20 Q1038
EFTU - Turku/Abo, Finland
Distance from station: E 68km
Päivitetty: 24/02/2018 06:20
Light snow, Selkeätä
Light snow, Selkeätä
 Wind from PKO
Tuuli: PKO 6 km/h
Lämpötila: -17°C
Kastepiste: -18°C
Kosteus: 92%
Ilmanpaine: 1037 hPa
Yhteenveto: Light Snow
Clouds: Selkeätä
Visibility: 10 km
2018/02/24 04:20 EFTU 240420Z AUTO 02003KT 9999 -SN NCD M17/M18 Q1037
 
EFTP - Tampere/Pirkkala, Finland
Distance from station: IKO 84km
Päivitetty: 24/02/2018 06:20
Selkeätä
Selkeätä
 Wind from varies
Tuuli: varies 6 km/h
Lämpötila: -19°C
Kastepiste: -21°C
Kosteus: 84%
Ilmanpaine: 1037 hPa
Yhteenveto: Selkeätä
Visibility: greater than 10 km
2018/02/24 04:20 EFTP 240420Z AUTO VRB03KT CAVOK M19/M21 Q1037